Time;durP1;ratioP1;P1;durP2;ratioP2;P2;SDS_P1;SDS_P2;PMS_P1;PMS_P2;Temp;Humidity;BMP_temperature;BMP_pressure;BME280_temperature;BME280_humidity;BME280_pressure;Samples;Min_cycle;Max_cycle;Signal;HPM_P1;HPM_P2
2021/12/30 00:00:01;;;;;;;11.13;4.03;;;12.60;99.90;;;;;;4986068;28;20459;-82
2021/12/30 00:02:31;;;;;;;12.07;4.43;;;12.60;99.90;;;;;;5003352;28;20252;-83
2021/12/30 00:04:59;;;;;;;13.60;4.67;;;12.60;99.90;;;;;;4986317;28;20506;-82
2021/12/30 00:07:24;;;;;;;18.10;4.30;;;12.60;99.90;;;;;;5004607;28;20405;-83
2021/12/30 00:09:56;;;;;;;11.60;3.50;;;12.60;99.90;;;;;;4986386;28;20471;-83
2021/12/30 00:12:22;;;;;;;15.00;3.70;;;12.60;99.90;;;;;;5003438;28;20448;-82
2021/12/30 00:14:54;;;;;;;8.60;3.67;;;12.60;99.90;;;;;;4984391;28;20479;-83
2021/12/30 00:17:19;;;;;;;11.20;4.47;;;12.60;99.90;;;;;;4985132;28;20185;-82
2021/12/30 00:19:45;;;;;;;9.80;4.03;;;12.60;99.90;;;;;;4984946;28;20423;-82
2021/12/30 00:22:17;;;;;;;18.60;4.87;;;12.60;99.90;;;;;;4981021;28;20650;-83
2021/12/30 00:24:43;;;;;;;13.50;3.47;;;12.60;99.90;;;;;;4981184;28;20260;-82
2021/12/30 00:27:08;;;;;;;13.90;3.63;;;12.60;99.90;;;;;;4982930;28;20509;-83
2021/12/30 00:29:34;;;;;;;16.93;3.67;;;12.60;99.90;;;;;;5006572;28;20256;-81
2021/12/30 00:32:05;;;;;;;12.57;4.47;;;12.60;99.90;;;;;;5007311;28;20272;-82
2021/12/30 00:34:31;;;;;;;8.73;5.33;;;12.60;99.90;;;;;;5021990;28;20223;-83
2021/12/30 00:36:57;;;;;;;12.27;5.30;;;12.70;99.90;;;;;;5004110;28;20420;-81
2021/12/30 00:39:22;;;;;;;12.00;5.53;;;12.60;99.90;;;;;;5004107;28;20185;-82
2021/12/30 00:41:48;;;;;;;15.73;6.10;;;12.60;99.90;;;;;;5004853;28;20201;-82
2021/12/30 00:44:13;;;;;;;12.40;4.80;;;12.70;99.90;;;;;;5021578;28;20197;-82
2021/12/30 00:46:39;;;;;;;13.70;5.40;;;12.70;99.90;;;;;;5004692;28;20184;-83
2021/12/30 00:49:09;;;;;;;16.30;5.00;;;12.70;99.90;;;;;;5005465;28;20539;-82
2021/12/30 00:51:36;;;;;;;16.23;4.50;;;12.70;99.90;;;;;;5022588;28;20196;-83
2021/12/30 00:54:02;;;;;;;13.20;7.50;;;12.70;99.90;;;;;;5004613;28;20518;-83
2021/12/30 00:56:28;;;;;;;13.57;4.97;;;12.70;99.90;;;;;;5004671;28;20423;-81
2021/12/30 00:58:54;;;;;;;12.70;5.33;;;12.70;99.90;;;;;;5022996;28;20416;-82
2021/12/30 01:01:20;;;;;;;18.03;5.10;;;12.70;99.90;;;;;;5022646;28;20793;-82
2021/12/30 01:03:49;;;;;;;14.80;5.00;;;12.70;99.90;;;;;;5004100;28;20934;-81
2021/12/30 01:06:15;;;;;;;10.83;4.83;;;12.70;99.90;;;;;;5004377;28;20443;-82
2021/12/30 01:08:40;;;;;;;8.30;4.80;;;12.80;99.90;;;;;;5020859;28;20420;-83
2021/12/30 01:11:08;;;;;;;9.20;4.60;;;12.70;99.90;;;;;;5003846;28;20881;-83
2021/12/30 01:13:40;;;;;;;10.67;5.00;;;12.70;99.90;;;;;;5004027;28;20240;-82
2021/12/30 01:16:15;;;;;;;18.00;4.50;;;12.80;99.90;;;;;;5002065;28;20429;-84
2021/12/30 01:18:55;;;;;;;12.47;4.50;;;12.80;99.90;;;;;;5000734;28;20974;-85
2021/12/30 01:21:23;;;;;;;12.13;4.70;;;12.70;99.90;;;;;;5000634;28;20526;-85
2021/12/30 01:23:48;;;;;;;17.93;4.70;;;12.80;99.90;;;;;;5018103;28;20908;-84
2021/12/30 01:26:14;;;;;;;16.20;5.17;;;12.90;99.90;;;;;;5001085;28;20424;-84
2021/12/30 01:28:53;;;;;;;10.80;4.90;;;12.80;99.90;;;;;;5001171;28;20204;-84
2021/12/30 01:31:19;;;;;;;8.07;4.57;;;12.80;99.90;;;;;;5000229;28;20581;-84
2021/12/30 01:33:47;;;;;;;9.57;5.57;;;12.80;99.90;;;;;;5018312;28;20451;-85
2021/12/30 01:36:26;;;;;;;8.97;5.53;;;12.80;99.90;;;;;;5000829;28;20425;-84
2021/12/30 01:38:53;;;;;;;13.80;5.57;;;12.80;99.90;;;;;;5001064;28;20423;-84
2021/12/30 01:41:21;;;;;;;11.23;5.10;;;12.80;99.90;;;;;;5000220;28;20450;-84
2021/12/30 01:43:46;;;;;;;16.60;4.37;;;12.90;99.90;;;;;;5000942;28;20799;-85
2021/12/30 01:46:12;;;;;;;19.03;4.70;;;12.80;99.90;;;;;;5018121;28;20420;-84
2021/12/30 01:48:38;;;;;;;20.07;5.30;;;12.80;99.90;;;;;;5000947;28;20268;-84
2021/12/30 01:51:07;;;;;;;11.47;5.00;;;12.80;99.90;;;;;;5000229;28;20423;-83
2021/12/30 01:53:36;;;;;;;16.60;5.03;;;12.90;99.90;;;;;;5000944;28;20409;-84
2021/12/30 01:56:04;;;;;;;7.50;4.37;;;12.90;99.90;;;;;;5000494;28;20586;-84
2021/12/30 01:58:29;;;;;;;15.23;4.40;;;12.90;99.90;;;;;;4999813;28;20427;-83
2021/12/30 02:00:55;;;;;;;11.03;4.47;;;12.90;99.90;;;;;;5001379;28;20424;-84
2021/12/30 02:03:21;;;;;;;12.53;3.73;;;12.90;99.90;;;;;;5000174;28;20273;-84
2021/12/30 02:05:50;;;;;;;10.60;4.37;;;12.90;99.90;;;;;;5017610;28;20292;-84
2021/12/30 02:08:20;;;;;;;15.53;4.27;;;12.90;99.90;;;;;;5000291;28;20448;-84
2021/12/30 02:10:50;;;;;;;11.90;4.20;;;12.80;99.90;;;;;;5000354;28;20953;-84
2021/12/30 02:13:17;;;;;;;14.33;4.87;;;12.80;99.90;;;;;;4999254;28;20803;-84
2021/12/30 02:15:43;;;;;;;16.33;4.63;;;12.90;99.90;;;;;;5017550;28;20420;-84
2021/12/30 02:18:09;;;;;;;9.50;4.50;;;12.90;99.90;;;;;;5018086;28;20427;-84
2021/12/30 02:20:44;;;;;;;13.60;3.20;;;12.90;99.90;;;;;;5000975;28;20557;-84
2021/12/30 02:23:12;;;;;;;8.43;3.80;;;13.00;99.90;;;;;;5018368;28;20196;-84
2021/12/30 02:25:38;;;;;;;9.80;4.67;;;13.00;99.90;;;;;;5000879;28;20554;-84
2021/12/30 02:28:12;;;;;;;10.00;4.10;;;13.10;99.90;;;;;;5000295;28;20506;-84
2021/12/30 02:30:39;;;;;;;15.13;4.50;;;13.20;99.90;;;;;;5000526;28;20574;-82
2021/12/30 02:33:05;;;;;;;11.33;4.90;;;13.20;99.90;;;;;;5000145;28;20440;-84
2021/12/30 02:35:37;;;;;;;11.20;3.83;;;13.30;99.90;;;;;;5017555;28;20450;-82
2021/12/30 02:38:09;;;;;;;12.27;5.10;;;13.30;99.90;;;;;;5000193;28;20482;-84
2021/12/30 02:40:51;;;;;;;11.97;4.70;;;13.40;99.90;;;;;;4999077;28;20534;-83
2021/12/30 02:43:21;;;;;;;8.80;3.60;;;13.40;99.90;;;;;;5017881;28;20509;-84
2021/12/30 02:45:47;;;;;;;8.03;4.13;;;13.40;99.90;;;;;;5016812;28;21001;-84
2021/12/30 02:48:15;;;;;;;6.80;3.60;;;13.40;99.90;;;;;;4999871;28;20474;-84
2021/12/30 02:50:45;;;;;;;9.30;3.63;;;13.50;99.90;;;;;;5000617;28;20524;-83
2021/12/30 02:53:12;;;;;;;8.80;3.57;;;13.50;99.90;;;;;;5000511;28;20432;-84
2021/12/30 02:55:39;;;;;;;11.40;5.20;;;13.50;99.90;;;;;;5017765;28;20499;-84
2021/12/30 02:58:05;;;;;;;7.90;4.50;;;13.50;99.90;;;;;;4999737;28;20424;-84
2021/12/30 03:00:33;;;;;;;6.80;3.90;;;13.40;99.90;;;;;;4999673;28;20959;-84
2021/12/30 03:02:59;;;;;;;12.80;6.57;;;13.40;99.90;;;;;;4999651;28;20209;-84
2021/12/30 03:05:25;;;;;;;13.20;6.43;;;13.50;99.90;;;;;;5000668;28;20473;-83
2021/12/30 03:07:52;;;;;;;9.23;5.10;;;13.50;99.90;;;;;;5000527;28;20181;-84
2021/12/30 03:10:20;;;;;;;12.80;5.20;;;13.50;99.90;;;;;;5018134;28;20629;-83
2021/12/30 03:12:53;;;;;;;7.20;4.73;;;13.50;99.90;;;;;;4984614;28;20471;-83
2021/12/30 03:15:19;;;;;;;9.20;4.20;;;13.50;99.90;;;;;;5001087;28;20411;-83
2021/12/30 03:17:48;;;;;;;9.90;3.97;;;13.40;99.90;;;;;;5002695;28;20432;-84
2021/12/30 03:20:14;;;;;;;10.40;4.40;;;13.40;99.90;;;;;;5005496;28;20432;-83
2021/12/30 03:22:41;;;;;;;14.60;4.60;;;13.40;99.90;;;;;;5023636;28;20434;-81
2021/12/30 03:25:08;;;;;;;15.00;5.10;;;13.30;99.90;;;;;;5005004;28;20205;-83
2021/12/30 03:27:35;;;;;;;14.13;6.93;;;13.20;99.90;;;;;;5005550;28;20471;-82
2021/12/30 03:30:03;;;;;;;12.37;6.93;;;13.30;99.90;;;;;;5022794;28;20443;-82
2021/12/30 03:32:29;;;;;;;13.43;5.93;;;13.30;99.90;;;;;;5022522;28;20462;-83
2021/12/30 03:34:54;;;;;;;13.70;6.80;;;13.30;99.90;;;;;;5023422;28;20419;-82
2021/12/30 03:37:20;;;;;;;9.93;5.30;;;13.30;99.90;;;;;;5005434;28;20193;-81
2021/12/30 03:39:48;;;;;;;11.30;5.07;;;13.30;99.90;;;;;;5004691;28;20563;-81
2021/12/30 03:42:14;;;;;;;8.50;4.70;;;13.30;99.90;;;;;;5003674;28;20204;-83
2021/12/30 03:44:39;;;;;;;12.00;4.30;;;13.30;99.90;;;;;;5020814;28;20475;-81
2021/12/30 03:47:06;;;;;;;9.13;4.53;;;13.30;99.90;;;;;;5002591;28;20907;-83
2021/12/30 03:49:46;;;;;;;7.80;5.10;;;13.30;99.90;;;;;;5002192;28;20238;-82
2021/12/30 03:52:15;;;;;;;9.33;5.00;;;13.30;99.90;;;;;;5002105;28;20474;-81
2021/12/30 03:54:42;;;;;;;8.47;4.07;;;13.30;99.90;;;;;;5002137;28;20451;-82
2021/12/30 03:57:08;;;;;;;9.57;5.00;;;13.30;99.90;;;;;;5001994;28;20845;-81
2021/12/30 03:59:34;;;;;;;7.77;4.80;;;13.30;99.90;;;;;;5003028;28;20522;-82
2021/12/30 04:02:00;;;;;;;7.73;4.27;;;13.30;99.90;;;;;;5002433;28;20454;-82
2021/12/30 04:04:34;;;;;;;13.13;4.80;;;13.20;99.90;;;;;;5019930;28;20954;-83
2021/12/30 04:07:03;;;;;;;11.70;4.60;;;13.20;99.90;;;;;;5001562;28;20185;-82
2021/12/30 04:09:30;;;;;;;5.13;3.60;;;13.20;99.90;;;;;;5002466;28;20911;-83
2021/12/30 04:14:26;;;;;;;8.60;3.63;;;13.10;99.90;;;;;;5005568;28;20475;-85
2021/12/30 04:16:53;;;;;;;7.40;4.07;;;13.20;99.90;;;;;;5028698;28;20419;-85
2021/12/30 04:19:18;;;;;;;6.77;3.50;;;13.30;99.90;;;;;;5019109;28;20466;-84
2021/12/30 04:21:44;;;;;;;6.07;3.60;;;13.30;99.90;;;;;;5016712;28;20415;-84
2021/12/30 04:24:10;;;;;;;8.43;3.67;;;13.30;99.90;;;;;;5016786;28;20200;-85
2021/12/30 04:26:37;;;;;;;5.20;2.73;;;13.30;99.90;;;;;;5016614;28;20423;-85
2021/12/30 04:29:04;;;;;;;3.93;2.90;;;13.30;99.90;;;;;;5016867;28;20441;-85
2021/12/30 04:31:30;;;;;;;4.60;2.27;;;13.30;99.90;;;;;;5034529;28;20411;-85
2021/12/30 04:33:57;;;;;;;3.30;2.00;;;13.30;99.90;;;;;;5016655;28;20505;-85
2021/12/30 04:36:22;;;;;;;6.90;2.43;;;13.30;99.90;;;;;;5016494;28;20535;-85
2021/12/30 04:38:48;;;;;;;4.00;1.97;;;13.30;99.90;;;;;;5016761;28;20822;-85
2021/12/30 04:41:13;;;;;;;3.80;1.90;;;13.20;99.90;;;;;;5034293;28;20180;-85
2021/12/30 04:43:39;;;;;;;7.80;2.10;;;13.30;99.90;;;;;;5016654;28;20682;-85
2021/12/30 04:46:05;;;;;;;3.80;2.60;;;13.30;99.90;;;;;;5034138;28;20200;-85
2021/12/30 04:48:31;;;;;;;4.33;2.07;;;13.30;99.90;;;;;;5034157;28;20419;-85
2021/12/30 04:50:57;;;;;;;6.13;2.50;;;13.30;99.90;;;;;;5016439;28;20350;-84
2021/12/30 04:53:23;;;;;;;4.87;2.80;;;13.30;99.90;;;;;;5016413;28;20223;-86
2021/12/30 04:55:49;;;;;;;3.80;2.50;;;13.30;99.90;;;;;;5034219;28;20227;-85
2021/12/30 04:58:16;;;;;;;4.37;2.63;;;13.40;99.90;;;;;;5016023;28;20423;-85
2021/12/30 05:00:43;;;;;;;5.70;3.00;;;13.40;99.90;;;;;;5016256;28;20424;-85
2021/12/30 05:03:10;;;;;;;3.87;2.10;;;13.50;99.90;;;;;;5016170;28;20890;-85
2021/12/30 05:05:38;;;;;;;5.13;2.40;;;13.50;99.90;;;;;;5016255;28;20462;-85
2021/12/30 05:08:05;;;;;;;4.20;2.73;;;13.50;99.90;;;;;;5015780;28;20426;-84
2021/12/30 05:10:31;;;;;;;3.50;2.23;;;13.50;99.90;;;;;;5016197;28;20501;-85
2021/12/30 05:12:56;;;;;;;6.30;1.80;;;13.60;99.90;;;;;;5015951;28;20954;-85
2021/12/30 05:15:22;;;;;;;4.00;1.70;;;13.60;99.90;;;;;;5016034;28;20431;-85
2021/12/30 05:17:48;;;;;;;5.10;2.43;;;13.60;99.90;;;;;;5015909;28;20185;-85
2021/12/30 05:20:14;;;;;;;4.50;1.80;;;13.60;99.90;;;;;;5015899;28;20187;-85
2021/12/30 05:22:42;;;;;;;3.60;2.00;;;13.70;99.90;;;;;;5015826;28;20471;-85
2021/12/30 05:25:09;;;;;;;3.70;1.80;;;13.70;99.90;;;;;;5033373;28;20458;-85
2021/12/30 05:27:35;;;;;;;2.97;1.63;;;13.70;99.90;;;;;;5015614;28;20803;-85
2021/12/30 05:30:02;;;;;;;4.20;1.83;;;13.70;99.90;;;;;;5015688;28;20782;-85
2021/12/30 05:32:28;;;;;;;3.70;2.10;;;13.80;99.90;;;;;;5015756;28;20443;-85
2021/12/30 05:34:53;;;;;;;3.90;2.20;;;13.90;99.90;;;;;;5015693;28;20426;-85
2021/12/30 05:37:19;;;;;;;3.50;1.80;;;13.90;99.90;;;;;;5015426;28;20211;-86
2021/12/30 05:39:45;;;;;;;3.30;1.90;;;13.90;99.90;;;;;;5032856;28;20192;-86
2021/12/30 05:42:10;;;;;;;3.17;1.90;;;13.90;99.90;;;;;;5015294;28;20204;-86
2021/12/30 05:44:36;;;;;;;3.27;1.87;;;14.00;99.90;;;;;;5033333;28;20212;-86
2021/12/30 05:47:02;;;;;;;3.17;1.87;;;14.00;99.90;;;;;;5015266;28;20180;-86
2021/12/30 05:49:27;;;;;;;3.03;2.00;;;14.00;99.90;;;;;;5015537;28;20271;-86
2021/12/30 05:51:53;;;;;;;3.00;1.67;;;14.00;99.90;;;;;;5032979;28;20411;-85
2021/12/30 05:54:18;;;;;;;5.93;2.03;;;14.10;99.90;;;;;;5015494;28;20275;-85
2021/12/30 05:56:44;;;;;;;3.70;2.30;;;14.10;99.90;;;;;;5015031;28;20180;-86
2021/12/30 05:59:09;;;;;;;3.20;1.73;;;14.10;99.90;;;;;;5015407;28;20196;-85
2021/12/30 06:01:35;;;;;;;3.20;1.70;;;14.00;99.90;;;;;;5015353;28;20180;-86
2021/12/30 06:04:01;;;;;;;3.63;1.53;;;14.10;99.90;;;;;;5015018;28;20747;-85
2021/12/30 06:06:26;;;;;;;3.10;1.60;;;14.10;99.90;;;;;;5014915;28;20188;-84
2021/12/30 06:08:53;;;;;;;3.37;1.93;;;14.10;99.90;;;;;;5015035;28;20184;-86
2021/12/30 06:11:18;;;;;;;2.90;1.60;;;14.20;99.90;;;;;;5014729;28;20840;-85
2021/12/30 06:13:44;;;;;;;3.70;1.60;;;14.20;99.90;;;;;;5014804;28;20487;-85
2021/12/30 06:16:10;;;;;;;3.10;1.53;;;14.20;99.90;;;;;;5015085;28;20180;-85
2021/12/30 06:18:35;;;;;;;3.03;1.60;;;14.20;99.90;;;;;;5014600;28;20181;-85
2021/12/30 06:21:01;;;;;;;3.87;1.60;;;14.30;99.90;;;;;;5014809;28;20177;-86
2021/12/30 06:23:26;;;;;;;2.93;1.87;;;14.30;99.90;;;;;;5014578;28;20829;-85
2021/12/30 06:25:52;;;;;;;2.80;1.63;;;14.20;99.90;;;;;;5014609;28;20207;-86
2021/12/30 06:28:18;;;;;;;4.53;1.90;;;14.30;99.90;;;;;;5014657;28;20210;-87
2021/12/30 06:30:43;;;;;;;3.30;1.83;;;14.30;99.90;;;;;;5014592;28;20176;-85
2021/12/30 06:33:09;;;;;;;3.20;2.03;;;14.30;99.90;;;;;;5014749;28;20199;-86
2021/12/30 06:35:35;;;;;;;4.93;2.10;;;14.30;99.90;;;;;;5032245;28;20176;-85
2021/12/30 06:38:02;;;;;;;4.00;2.70;;;14.30;99.90;;;;;;5014681;28;20180;-86
2021/12/30 06:40:28;;;;;;;3.83;2.30;;;14.30;99.90;;;;;;5014386;28;20404;-85
2021/12/30 06:42:53;;;;;;;3.30;2.20;;;14.30;99.90;;;;;;5014604;28;20978;-86
2021/12/30 06:45:19;;;;;;;3.43;2.20;;;14.30;99.90;;;;;;5014433;28;20270;-86
2021/12/30 06:47:45;;;;;;;3.60;2.50;;;14.30;99.90;;;;;;5032042;28;20176;-85
2021/12/30 06:50:13;;;;;;;4.30;2.47;;;14.40;99.90;;;;;;5014677;28;20180;-86
2021/12/30 06:52:40;;;;;;;3.80;2.43;;;14.40;99.90;;;;;;5013566;28;20435;-86
2021/12/30 06:55:07;;;;;;;4.77;2.30;;;14.40;99.90;;;;;;5014494;28;20419;-85
2021/12/30 06:57:34;;;;;;;4.40;3.03;;;14.40;99.90;;;;;;5013955;28;20423;-86
2021/12/30 06:59:59;;;;;;;6.47;2.00;;;14.40;99.90;;;;;;5014645;28;20411;-86
2021/12/30 07:02:25;;;;;;;3.07;1.80;;;14.50;99.90;;;;;;5014081;28;20492;-86
2021/12/30 07:04:51;;;;;;;2.90;1.60;;;14.40;99.90;;;;;;5032176;28;20197;-85
2021/12/30 07:07:16;;;;;;;3.50;1.63;;;14.50;99.90;;;;;;5031804;28;20251;-86
2021/12/30 07:09:42;;;;;;;3.20;1.90;;;14.50;99.90;;;;;;5014657;28;20179;-86
2021/12/30 07:12:08;;;;;;;2.80;1.70;;;14.50;99.90;;;;;;5014450;28;20207;-85
2021/12/30 07:14:34;;;;;;;3.50;1.97;;;14.40;99.90;;;;;;5032170;28;20830;-85
2021/12/30 07:16:59;;;;;;;3.90;2.07;;;14.40;99.90;;;;;;5014184;28;20419;-86
2021/12/30 07:19:25;;;;;;;3.10;1.80;;;14.40;99.90;;;;;;5014161;28;20212;-86
2021/12/30 07:21:50;;;;;;;2.77;1.73;;;14.50;99.90;;;;;;5014220;28;20180;-86
2021/12/30 07:24:17;;;;;;;2.87;1.90;;;14.40;99.90;;;;;;5014233;28;20669;-87
2021/12/30 07:26:43;;;;;;;3.33;2.00;;;14.50;99.90;;;;;;5013702;28;20632;-86
2021/12/30 07:29:09;;;;;;;3.50;1.97;;;14.50;99.90;;;;;;5014175;28;20411;-87
2021/12/30 07:31:34;;;;;;;4.30;1.93;;;14.50;99.90;;;;;;5014219;28;20422;-86
2021/12/30 07:34:00;;;;;;;3.10;1.77;;;14.50;99.90;;;;;;5031817;28;20193;-86
2021/12/30 07:36:26;;;;;;;3.10;1.50;;;14.50;99.90;;;;;;5014094;28;20177;-86
2021/12/30 07:38:51;;;;;;;3.10;1.30;;;14.50;99.90;;;;;;5014335;28;20596;-86
2021/12/30 07:41:18;;;;;;;3.30;1.60;;;14.50;99.90;;;;;;5014117;28;20184;-86
2021/12/30 07:43:43;;;;;;;2.23;1.00;;;14.50;99.90;;;;;;5031841;28;20231;-86
2021/12/30 07:46:10;;;;;;;5.40;1.57;;;14.50;99.90;;;;;;5013797;28;20502;-87
2021/12/30 07:48:37;;;;;;;2.57;1.10;;;14.50;99.90;;;;;;5013920;28;20639;-86
2021/12/30 07:51:03;;;;;;;2.43;1.30;;;14.50;99.90;;;;;;5013921;28;20419;-87
2021/12/30 07:53:28;;;;;;;2.43;1.27;;;14.50;99.90;;;;;;5014035;28;20462;-86
2021/12/30 07:55:54;;;;;;;3.40;1.90;;;14.60;99.90;;;;;;5014147;28;20241;-86
2021/12/30 07:58:20;;;;;;;3.60;1.83;;;14.50;99.90;;;;;;5013818;28;20192;-86
2021/12/30 08:00:45;;;;;;;2.80;1.50;;;14.50;99.90;;;;;;5013995;28;20431;-87
2021/12/30 08:03:11;;;;;;;3.67;1.60;;;14.60;99.90;;;;;;5015264;28;20207;-87
2021/12/30 08:05:37;;;;;;;4.33;1.77;;;14.60;99.90;;;;;;5017555;28;20231;-87
2021/12/30 08:08:02;;;;;;;3.67;1.70;;;14.70;99.90;;;;;;5017325;28;20561;-87
2021/12/30 08:10:29;;;;;;;4.67;1.70;;;14.70;99.90;;;;;;5035230;28;20566;-87
2021/12/30 08:12:56;;;;;;;3.60;1.97;;;14.70;99.90;;;;;;5017310;28;20298;-86
2021/12/30 08:15:24;;;;;;;3.20;1.90;;;14.80;99.90;;;;;;5017512;28;20427;-87
2021/12/30 08:17:50;;;;;;;3.40;2.23;;;14.80;99.90;;;;;;5017181;28;21027;-87
2021/12/30 08:20:17;;;;;;;3.63;2.40;;;14.80;99.90;;;;;;5034985;28;20490;-86
2021/12/30 08:22:43;;;;;;;3.83;2.43;;;14.80;99.90;;;;;;5034887;28;20304;-86
2021/12/30 08:25:11;;;;;;;3.90;2.40;;;14.80;99.90;;;;;;5016922;28;20834;-87
2021/12/30 08:27:37;;;;;;;3.53;2.37;;;14.80;99.90;;;;;;5017305;28;20426;-87
2021/12/30 08:30:06;;;;;;;3.10;2.20;;;14.80;99.90;;;;;;5034603;28;20453;-87
2021/12/30 08:32:31;;;;;;;3.87;2.30;;;14.80;99.90;;;;;;5032717;28;20438;-85
2021/12/30 08:34:57;;;;;;;3.47;2.13;;;14.80;99.90;;;;;;5013739;28;20919;-86
2021/12/30 08:37:23;;;;;;;3.17;1.80;;;14.80;99.90;;;;;;4996994;28;20181;-85
2021/12/30 08:39:48;;;;;;;3.10;2.17;;;14.70;99.90;;;;;;4997142;28;20189;-85
2021/12/30 08:42:22;;;;;;;3.40;2.10;;;14.80;99.90;;;;;;4996677;28;20209;-85
2021/12/30 08:44:48;;;;;;;3.00;1.67;;;14.80;99.90;;;;;;5013448;28;20205;-85
2021/12/30 08:47:15;;;;;;;3.87;1.80;;;14.90;99.90;;;;;;5012529;28;20437;-85
2021/12/30 08:49:44;;;;;;;3.10;1.77;;;14.90;99.90;;;;;;5013303;28;20939;-85
2021/12/30 08:52:10;;;;;;;2.93;1.90;;;14.90;99.90;;;;;;5014140;28;20864;-85
2021/12/30 08:54:36;;;;;;;2.70;1.60;;;14.90;99.90;;;;;;5014650;28;20474;-85
2021/12/30 08:57:04;;;;;;;3.30;1.90;;;14.90;99.90;;;;;;4996578;28;20436;-85
2021/12/30 08:59:30;;;;;;;3.40;1.80;;;14.90;99.90;;;;;;5014139;28;20538;-85
2021/12/30 09:01:55;;;;;;;3.00;1.63;;;14.80;99.90;;;;;;5014191;28;20504;-84
2021/12/30 09:04:21;;;;;;;3.23;1.80;;;14.80;99.90;;;;;;5012844;28;20208;-85
2021/12/30 09:06:47;;;;;;;4.23;2.20;;;14.90;99.90;;;;;;4996316;28;20189;-85
2021/12/30 09:09:13;;;;;;;3.07;2.00;;;14.90;99.90;;;;;;5013235;28;20182;-86
2021/12/30 09:11:38;;;;;;;4.60;1.80;;;15.00;99.90;;;;;;4997291;28;20579;-86
2021/12/30 09:14:04;;;;;;;4.93;2.70;;;15.10;99.90;;;;;;4995651;28;20197;-85
2021/12/30 09:16:29;;;;;;;4.07;2.67;;;15.10;99.90;;;;;;5015092;28;20181;-85
2021/12/30 09:18:56;;;;;;;5.20;2.67;;;15.10;99.90;;;;;;5015939;28;20181;-84
2021/12/30 09:21:21;;;;;;;4.37;2.40;;;15.10;99.90;;;;;;5010847;28;20185;-84
2021/12/30 09:23:48;;;;;;;3.63;2.33;;;15.10;99.90;;;;;;4979933;28;20467;-85
2021/12/30 09:26:14;;;;;;;3.80;2.63;;;15.10;99.90;;;;;;4992952;28;20205;-85
2021/12/30 09:28:40;;;;;;;3.50;2.13;;;15.20;99.90;;;;;;4994688;28;20420;-85
2021/12/30 09:31:06;;;;;;;3.30;2.20;;;15.20;99.90;;;;;;4993968;28;20269;-85
2021/12/30 09:33:31;;;;;;;4.50;2.40;;;15.30;99.90;;;;;;4993961;28;20964;-85
2021/12/30 09:35:59;;;;;;;3.50;2.50;;;15.30;99.90;;;;;;4994376;28;20192;-84
2021/12/30 09:38:24;;;;;;;5.37;2.60;;;15.30;99.90;;;;;;4992869;28;20753;-85
2021/12/30 09:40:50;;;;;;;3.30;2.20;;;15.30;99.90;;;;;;4993487;28;20464;-85
2021/12/30 09:43:16;;;;;;;3.17;2.20;;;15.30;99.90;;;;;;4994729;28;20927;-85
2021/12/30 09:45:42;;;;;;;3.40;1.83;;;15.40;99.90;;;;;;4993794;28;20244;-84
2021/12/30 09:48:13;;;;;;;3.37;1.70;;;15.40;99.90;;;;;;4994743;28;20413;-83
2021/12/30 09:50:48;;;;;;;2.60;1.60;;;15.50;99.90;;;;;;4993242;28;20839;-85
2021/12/30 09:53:17;;;;;;;3.67;1.70;;;15.50;99.90;;;;;;4993367;28;20448;-84
2021/12/30 09:55:42;;;;;;;2.97;1.50;;;15.60;99.90;;;;;;4992867;28;20424;-84
2021/12/30 09:58:08;;;;;;;3.33;1.30;;;15.60;99.90;;;;;;4993120;28;20425;-85
2021/12/30 10:00:34;;;;;;;3.53;1.40;;;15.60;99.90;;;;;;4994062;28;20174;-85
2021/12/30 10:02:59;;;;;;;3.53;1.30;;;15.70;99.90;;;;;;4993889;28;20671;-84
2021/12/30 10:05:31;;;;;;;2.70;1.40;;;15.60;99.90;;;;;;4992973;28;20556;-85
2021/12/30 10:08:09;;;;;;;3.10;1.20;;;15.60;99.90;;;;;;4993959;28;20637;-84
2021/12/30 10:10:38;;;;;;;2.77;1.20;;;15.60;99.90;;;;;;4992612;28;20417;-84
2021/12/30 10:13:21;;;;;;;3.33;1.50;;;15.70;99.90;;;;;;4994904;28;20514;-84
2021/12/30 10:15:49;;;;;;;4.30;1.83;;;15.70;99.90;;;;;;5011865;28;20949;-84
2021/12/30 10:18:15;;;;;;;2.30;1.00;;;15.70;99.90;;;;;;5011756;28;20416;-84
2021/12/30 10:20:42;;;;;;;2.77;1.40;;;15.70;99.90;;;;;;5011924;28;20424;-84
2021/12/30 10:23:12;;;;;;;2.97;1.30;;;15.70;99.90;;;;;;5012242;28;21154;-83
2021/12/30 10:25:40;;;;;;;2.20;1.10;;;15.70;99.90;;;;;;5012043;28;20518;-85
2021/12/30 10:28:25;;;;;;;2.70;1.37;;;15.60;99.90;;;;;;5012420;28;20937;-85
2021/12/30 10:30:59;;;;;;;2.60;1.30;;;15.60;99.90;;;;;;4995080;28;20470;-85
2021/12/30 10:33:28;;;;;;;3.63;1.80;;;15.70;99.90;;;;;;4995138;28;20788;-86
2021/12/30 10:35:55;;;;;;;3.03;1.43;;;15.80;99.90;;;;;;5012656;28;20495;-85
2021/12/30 10:38:26;;;;;;;3.27;1.40;;;15.80;99.90;;;;;;5009231;28;20820;-84
2021/12/30 10:40:53;;;;;;;2.73;1.47;;;15.90;99.90;;;;;;5009547;28;20444;-85
2021/12/30 10:43:38;;;;;;;2.60;1.40;;;15.90;99.90;;;;;;5011587;28;20447;-85
2021/12/30 10:46:23;;;;;;;2.70;1.40;;;15.80;99.90;;;;;;5011016;28;20462;-85
2021/12/30 10:49:09;;;;;;;3.13;1.57;;;15.80;99.90;;;;;;5012481;28;20462;-85
2021/12/30 10:51:43;;;;;;;3.90;1.90;;;15.80;99.90;;;;;;5011489;28;20418;-85
2021/12/30 10:54:25;;;;;;;3.13;1.87;;;15.80;99.90;;;;;;5010912;28;21020;-84
2021/12/30 10:56:58;;;;;;;3.33;1.50;;;15.80;99.90;;;;;;5010521;28;20408;-85
2021/12/30 10:59:25;;;;;;;3.30;1.80;;;15.80;99.90;;;;;;5011057;28;20801;-84
2021/12/30 11:01:58;;;;;;;3.27;1.80;;;15.80;99.90;;;;;;5010692;28;21145;-87
2021/12/30 11:04:35;;;;;;;2.73;1.60;;;15.80;99.90;;;;;;5010775;28;20466;-85
2021/12/30 11:07:01;;;;;;;3.17;1.60;;;15.90;99.90;;;;;;5011592;28;20403;-85
2021/12/30 11:09:27;;;;;;;4.10;1.90;;;15.90;99.90;;;;;;5008605;28;21345;-84
2021/12/30 11:11:56;;;;;;;3.63;1.87;;;15.90;99.90;;;;;;4991418;28;20485;-85
2021/12/30 11:14:25;;;;;;;3.53;1.90;;;16.00;99.90;;;;;;5002203;28;20455;-84
2021/12/30 11:16:52;;;;;;;5.23;2.20;;;16.10;99.90;;;;;;5004266;28;20447;-86
2021/12/30 11:19:18;;;;;;;3.47;2.20;;;16.00;99.90;;;;;;5009557;28;20419;-85
2021/12/30 11:21:44;;;;;;;4.87;2.23;;;16.00;99.90;;;;;;5009247;28;20430;-85
2021/12/30 11:24:11;;;;;;;3.00;2.00;;;16.00;99.90;;;;;;5010415;28;20181;-85
2021/12/30 11:26:37;;;;;;;3.00;2.00;;;16.00;99.90;;;;;;5011677;28;21047;-84
2021/12/30 11:29:04;;;;;;;3.33;1.67;;;16.00;99.90;;;;;;5011540;28;20807;-85
2021/12/30 11:31:32;;;;;;;3.57;2.03;;;16.00;99.90;;;;;;5010424;28;20950;-85
2021/12/30 11:33:59;;;;;;;3.83;2.40;;;16.00;99.90;;;;;;5010626;28;20519;-85
2021/12/30 11:36:28;;;;;;;6.13;2.57;;;16.00;99.90;;;;;;5011503;28;21296;-84
2021/12/30 11:38:57;;;;;;;4.73;2.27;;;15.90;99.90;;;;;;5013369;28;20935;-84
2021/12/30 11:41:26;;;;;;;3.80;2.40;;;15.90;99.90;;;;;;5013994;28;20961;-85
2021/12/30 11:43:52;;;;;;;3.87;2.10;;;16.00;99.90;;;;;;5015703;28;20498;-84
2021/12/30 11:46:42;;;;;;;4.43;2.33;;;16.10;99.90;;;;;;5014221;28;20459;-85
2021/12/30 11:49:10;;;;;;;4.37;2.17;;;16.20;99.90;;;;;;5014442;28;20173;-84
2021/12/30 11:51:43;;;;;;;6.23;2.67;;;16.20;99.90;;;;;;5014275;28;20522;-83
2021/12/30 11:54:31;;;;;;;4.63;2.00;;;16.30;99.90;;;;;;5013989;28;20420;-83
2021/12/30 11:57:25;;;;;;;3.63;2.47;;;16.30;99.90;;;;;;5013908;28;20408;-85
2021/12/30 11:59:52;;;;;;;6.17;2.40;;;16.30;99.90;;;;;;5014119;28;20426;-84
2021/12/30 12:02:38;;;;;;;4.23;2.20;;;16.30;99.90;;;;;;5014051;28;20444;-83
2021/12/30 12:05:43;;;;;;;4.00;2.07;;;16.30;99.90;;;;;;5014698;28;20931;-84
2021/12/30 12:08:14;;;;;;;4.93;2.20;;;16.20;99.90;;;;;;5013832;28;20439;-83
2021/12/30 12:10:44;;;;;;;5.63;1.70;;;16.20;99.90;;;;;;5013794;28;20412;-84
2021/12/30 12:13:32;;;;;;;4.80;2.10;;;16.20;99.90;;;;;;5015230;28;21051;-85
2021/12/30 12:15:58;;;;;;;4.20;2.00;;;16.30;99.90;;;;;;5013732;28;20449;-85
2021/12/30 12:18:24;;;;;;;2.87;1.77;;;16.30;99.90;;;;;;5013445;28;20846;-84
2021/12/30 12:20:54;;;;;;;3.90;1.93;;;16.40;99.90;;;;;;5015173;28;20403;-84
2021/12/30 12:23:33;;;;;;;4.60;2.83;;;16.50;99.90;;;;;;5013800;28;20205;-87
2021/12/30 12:26:22;;;;;;;4.30;1.80;;;16.40;99.90;;;;;;5013348;28;20529;-85
2021/12/30 12:28:48;;;;;;;4.37;1.80;;;16.50;99.90;;;;;;5013334;28;20416;-86
2021/12/30 12:31:14;;;;;;;3.47;1.63;;;16.50;99.90;;;;;;5013509;28;20412;-85
2021/12/30 12:33:42;;;;;;;2.70;1.53;;;16.50;99.90;;;;;;5014671;28;20432;-86
2021/12/30 12:36:32;;;;;;;3.50;1.60;;;16.50;99.90;;;;;;5013288;28;20185;-85
2021/12/30 12:38:57;;;;;;;4.70;2.00;;;16.50;99.90;;;;;;5014571;28;20404;-85
2021/12/30 12:41:31;;;;;;;3.93;1.70;;;16.50;99.90;;;;;;5013045;28;20440;-85
2021/12/30 12:44:12;;;;;;;5.80;2.07;;;16.60;99.90;;;;;;5013355;28;20207;-85
2021/12/30 12:46:52;;;;;;;5.23;2.30;;;16.50;99.90;;;;;;5014341;28;20396;-85
2021/12/30 12:49:32;;;;;;;3.90;1.80;;;16.40;99.90;;;;;;5011856;28;20448;-85
2021/12/30 12:51:59;;;;;;;3.90;2.30;;;16.40;99.90;;;;;;5014175;28;20821;-85